Time;durP1;ratioP1;P1;durP2;ratioP2;P2;SDS_P1;SDS_P2;PMS_P1;PMS_P2;Temp;Humidity;BMP_temperature;BMP_pressure;BME280_temperature;BME280_humidity;BME280_pressure;Samples;Min_cycle;Max_cycle;Signal;HPM_P1;HPM_P2
2021/03/21 00:00:42;;;;;;;1.77;1.65;;;7.20;99.90;;;;;;5036850;28;20533;-77
2021/03/21 00:03:08;;;;;;;1.23;1.13;;;7.30;99.90;;;;;;5060770;28;20431;-75
2021/03/21 00:05:33;;;;;;;3.03;1.25;;;7.30;99.90;;;;;;5065834;28;20021;-74
2021/03/21 00:08:03;;;;;;;1.80;1.33;;;7.30;99.90;;;;;;5048588;28;20024;-75
2021/03/21 00:10:30;;;;;;;3.50;1.35;;;7.40;99.90;;;;;;5076942;28;20043;-74
2021/03/21 00:12:57;;;;;;;4.07;1.10;;;7.40;99.90;;;;;;5076102;28;20392;-75
2021/03/21 00:15:23;;;;;;;1.67;1.58;;;7.40;99.90;;;;;;5075545;28;20044;-76
2021/03/21 00:17:49;;;;;;;3.53;1.70;;;7.40;99.90;;;;;;5076292;28;20511;-76
2021/03/21 00:20:16;;;;;;;1.98;1.27;;;7.40;99.90;;;;;;5058229;28;20036;-76
2021/03/21 00:22:41;;;;;;;3.60;1.20;;;7.40;99.90;;;;;;5058031;28;20046;-74
2021/03/21 00:25:13;;;;;;;1.40;1.30;;;7.40;99.90;;;;;;5076092;28;20504;-74
2021/03/21 00:27:39;;;;;;;2.35;1.30;;;7.40;99.90;;;;;;5057777;28;20579;-75
2021/03/21 00:30:08;;;;;;;1.35;1.23;;;7.40;99.90;;;;;;5075617;28;20055;-74
2021/03/21 00:32:34;;;;;;;2.25;1.60;;;7.40;99.90;;;;;;5049558;28;20036;-75
2021/03/21 00:34:59;;;;;;;1.50;1.40;;;7.30;99.90;;;;;;5075572;28;20028;-74
2021/03/21 00:37:25;;;;;;;3.20;1.23;;;7.30;99.90;;;;;;5075381;28;20041;-74
2021/03/21 00:39:50;;;;;;;1.25;1.15;;;7.30;99.90;;;;;;5057912;28;20071;-75
2021/03/21 00:42:16;;;;;;;2.38;1.25;;;7.40;99.90;;;;;;5058325;28;20024;-75
2021/03/21 00:44:41;;;;;;;1.73;1.40;;;7.40;99.90;;;;;;5057058;28;20021;-75
2021/03/21 00:47:07;;;;;;;3.50;1.20;;;7.30;99.90;;;;;;5076609;28;20500;-75
2021/03/21 00:49:32;;;;;;;2.33;1.50;;;7.40;99.90;;;;;;5054985;28;20037;-75
2021/03/21 00:51:58;;;;;;;3.85;2.13;;;7.40;99.90;;;;;;5055129;28;20017;-75
2021/03/21 00:54:24;;;;;;;4.28;1.20;;;7.30;99.90;;;;;;5075781;28;20036;-76
2021/03/21 00:56:49;;;;;;;1.45;1.30;;;7.30;99.90;;;;;;5075592;28;20028;-76
2021/03/21 00:59:15;;;;;;;1.38;1.17;;;7.20;99.90;;;;;;5057302;28;20505;-76
2021/03/21 01:01:41;;;;;;;2.10;1.50;;;7.20;99.90;;;;;;5074168;28;20016;-76
2021/03/21 01:04:06;;;;;;;3.92;1.55;;;7.10;99.90;;;;;;5075620;28;20024;-76
2021/03/21 01:06:33;;;;;;;1.60;1.42;;;7.10;99.90;;;;;;5067725;28;20025;-76
2021/03/21 01:09:03;;;;;;;1.60;1.50;;;7.00;99.90;;;;;;5073675;28;20090;-76
2021/03/21 01:11:32;;;;;;;2.58;1.85;;;7.00;99.90;;;;;;5075416;28;20086;-77
2021/03/21 01:13:58;;;;;;;1.80;1.55;;;7.00;99.90;;;;;;5056391;28;20028;-77
2021/03/21 01:16:28;;;;;;;5.78;1.55;;;7.00;99.90;;;;;;5071521;28;20037;-76
2021/03/21 01:18:55;;;;;;;2.53;1.63;;;6.90;99.90;;;;;;5062665;28;20048;-76
2021/03/21 01:21:23;;;;;;;4.95;1.67;;;6.90;99.90;;;;;;5060258;28;20066;-76
2021/03/21 01:23:49;;;;;;;3.55;1.77;;;7.00;99.90;;;;;;5066815;28;20029;-76
2021/03/21 01:26:17;;;;;;;2.25;1.63;;;6.90;99.90;;;;;;5052863;28;20033;-76
2021/03/21 01:28:43;;;;;;;4.32;1.83;;;6.90;99.90;;;;;;5073729;28;20025;-76
2021/03/21 01:31:13;;;;;;;2.97;2.17;;;6.80;99.90;;;;;;5064044;28;20107;-76
2021/03/21 01:33:39;;;;;;;2.30;2.10;;;6.80;99.90;;;;;;5070232;28;20078;-76
2021/03/21 01:36:09;;;;;;;6.38;2.00;;;6.90;99.90;;;;;;5070946;28;20036;-76
2021/03/21 01:38:35;;;;;;;3.70;2.28;;;6.90;99.90;;;;;;5048676;28;20025;-76
2021/03/21 01:41:04;;;;;;;3.33;2.55;;;6.90;99.90;;;;;;5055245;28;20048;-76
2021/03/21 01:43:38;;;;;;;3.67;1.88;;;7.00;99.90;;;;;;5064619;28;20083;-75
2021/03/21 01:46:06;;;;;;;3.00;2.42;;;7.10;99.90;;;;;;5067707;28;20606;-76
2021/03/21 01:48:51;;;;;;;2.30;2.10;;;7.10;99.90;;;;;;5057120;28;20024;-76
2021/03/21 01:51:27;;;;;;;4.22;2.40;;;7.10;99.90;;;;;;5055508;28;20033;-76
2021/03/21 01:53:56;;;;;;;3.47;2.58;;;7.20;99.90;;;;;;5073416;28;20485;-76
2021/03/21 01:56:23;;;;;;;3.03;2.28;;;7.10;99.90;;;;;;5065546;28;20024;-76
2021/03/21 01:58:57;;;;;;;3.78;2.78;;;7.20;99.90;;;;;;5043786;28;20057;-76
2021/03/21 02:01:28;;;;;;;3.38;2.40;;;7.10;99.90;;;;;;5055392;28;20025;-75
2021/03/21 02:03:54;;;;;;;3.95;3.05;;;7.10;99.90;;;;;;5060606;28;20480;-75
2021/03/21 02:06:35;;;;;;;3.55;2.80;;;7.10;99.90;;;;;;5055945;28;20036;-75
2021/03/21 02:09:35;;;;;;;4.63;2.97;;;7.10;99.90;;;;;;5069328;28;20515;-75
2021/03/21 02:12:34;;;;;;;4.47;3.17;;;7.20;99.90;;;;;;5066834;28;20032;-75
2021/03/21 02:15:06;;;;;;;6.22;3.60;;;7.10;99.90;;;;;;5055415;28;20087;-75
2021/03/21 02:17:52;;;;;;;6.30;3.05;;;7.20;99.90;;;;;;5074384;28;20365;-75
2021/03/21 02:20:24;;;;;;;6.88;3.88;;;7.10;99.90;;;;;;5036554;28;20587;-75
2021/03/21 02:22:56;;;;;;;7.95;3.38;;;7.00;99.90;;;;;;5062753;28;20021;-75
2021/03/21 02:25:41;;;;;;;7.80;3.67;;;6.90;99.90;;;;;;5070325;28;20040;-75
2021/03/21 02:28:50;;;;;;;5.50;4.13;;;6.90;99.90;;;;;;5070909;28;20030;-75
2021/03/21 02:31:25;;;;;;;6.00;3.97;;;6.90;99.90;;;;;;5067908;28;20025;-75
2021/03/21 02:33:56;;;;;;;8.38;4.53;;;7.00;99.90;;;;;;5041938;28;20037;-75
2021/03/21 02:36:33;;;;;;;6.65;4.30;;;7.00;99.90;;;;;;5061320;28;20099;-75
2021/03/21 02:39:16;;;;;;;10.57;4.60;;;7.00;99.90;;;;;;5044982;28;20021;-75
2021/03/21 02:41:46;;;;;;;9.07;5.07;;;7.00;99.90;;;;;;5043867;28;20525;-75
2021/03/21 02:44:29;;;;;;;8.20;5.13;;;6.90;99.90;;;;;;5062158;28;20027;-76
2021/03/21 02:47:05;;;;;;;8.43;5.68;;;7.00;99.90;;;;;;5047376;28;20032;-76
2021/03/21 02:49:49;;;;;;;7.45;4.78;;;7.10;99.90;;;;;;5073882;28;20036;-76
2021/03/21 02:52:38;;;;;;;7.53;4.72;;;7.10;99.90;;;;;;5052336;28;20060;-76
2021/03/21 02:55:28;;;;;;;7.57;4.80;;;7.20;99.90;;;;;;5051890;28;20025;-76
2021/03/21 02:58:15;;;;;;;6.70;4.50;;;7.20;99.90;;;;;;5070246;28;20021;-76
2021/03/21 03:00:56;;;;;;;8.65;4.88;;;7.20;99.90;;;;;;5065146;28;20025;-75
2021/03/21 03:03:24;;;;;;;11.15;5.03;;;7.20;99.90;;;;;;5068562;28;20085;-75
2021/03/21 03:05:57;;;;;;;13.48;6.63;;;7.20;99.90;;;;;;5053983;28;20107;-76
2021/03/21 03:08:33;;;;;;;11.68;5.78;;;7.10;99.90;;;;;;5045189;28;20027;-76
2021/03/21 03:11:01;;;;;;;12.52;6.53;;;7.10;99.90;;;;;;5043113;28;20496;-75
2021/03/21 03:13:38;;;;;;;11.57;6.30;;;7.10;99.90;;;;;;5041626;28;20493;-74
2021/03/21 03:16:21;;;;;;;11.45;6.90;;;7.00;99.90;;;;;;5067278;28;20027;-74
2021/03/21 03:18:53;;;;;;;10.27;5.80;;;6.90;99.90;;;;;;5047728;28;20027;-75
2021/03/21 03:21:36;;;;;;;10.60;6.60;;;7.00;99.90;;;;;;5037839;28;20044;-75
2021/03/21 03:24:13;;;;;;;12.05;6.80;;;7.00;99.90;;;;;;5067970;28;20546;-75
2021/03/21 03:26:57;;;;;;;12.80;7.60;;;7.00;99.90;;;;;;5055035;28;20111;-75
2021/03/21 03:29:38;;;;;;;13.38;7.45;;;7.00;99.90;;;;;;5038185;28;20068;-75
2021/03/21 03:32:11;;;;;;;13.55;7.13;;;7.00;99.90;;;;;;5049781;28;20029;-75
2021/03/21 03:34:40;;;;;;;13.68;7.68;;;7.00;99.90;;;;;;5044046;28;20106;-75
2021/03/21 03:37:06;;;;;;;13.82;7.80;;;7.00;99.90;;;;;;5052812;28;20041;-77
2021/03/21 03:39:32;;;;;;;13.27;8.60;;;7.10;99.90;;;;;;5040300;28;20447;-76
2021/03/21 03:42:22;;;;;;;21.42;8.98;;;7.00;99.90;;;;;;5070189;28;20028;-76
2021/03/21 03:44:50;;;;;;;16.92;8.57;;;7.00;99.90;;;;;;5062151;28;20029;-76
2021/03/21 03:47:37;;;;;;;17.85;8.55;;;6.90;99.90;;;;;;5067539;28;20369;-77
2021/03/21 03:50:12;;;;;;;20.77;9.57;;;6.90;99.90;;;;;;5045773;28;20032;-77
2021/03/21 03:52:43;;;;;;;21.02;8.63;;;7.00;99.90;;;;;;5070541;28;20417;-76
2021/03/21 03:55:26;;;;;;;19.92;9.82;;;7.00;99.90;;;;;;5064462;28;20476;-76
2021/03/21 03:57:59;;;;;;;17.55;9.25;;;7.10;99.90;;;;;;5073024;28;20059;-76
2021/03/21 04:00:34;;;;;;;20.17;8.90;;;7.10;99.90;;;;;;5045405;28;20044;-77
2021/03/21 04:03:36;;;;;;;19.05;8.30;;;7.10;99.90;;;;;;5053282;28;20029;-76
2021/03/21 04:06:12;;;;;;;15.30;8.27;;;7.30;99.90;;;;;;5052592;28;20485;-77
2021/03/21 04:08:41;;;;;;;17.13;8.07;;;7.40;99.90;;;;;;5067933;28;20032;-77
2021/03/21 04:11:24;;;;;;;12.55;7.35;;;7.30;99.90;;;;;;5071927;28;20389;-76
2021/03/21 04:14:06;;;;;;;17.10;7.57;;;7.40;99.90;;;;;;5046043;28;20029;-76
2021/03/21 04:16:36;;;;;;;16.30;7.38;;;7.30;99.90;;;;;;5053236;28;20040;-77
2021/03/21 04:19:06;;;;;;;16.58;6.75;;;7.30;99.90;;;;;;5045887;28;20017;-77
2021/03/21 04:21:39;;;;;;;15.18;4.88;;;7.30;99.90;;;;;;5035655;28;20025;-77
2021/03/21 04:24:18;;;;;;;11.95;4.82;;;7.40;99.90;;;;;;5036322;28;20021;-77
2021/03/21 04:26:51;;;;;;;10.93;4.47;;;7.40;99.90;;;;;;5049713;28;20497;-76
2021/03/21 04:29:40;;;;;;;11.90;4.07;;;7.40;99.90;;;;;;5072818;28;20107;-75
2021/03/21 04:32:19;;;;;;;7.93;2.97;;;7.40;99.90;;;;;;5049674;28;20048;-75
2021/03/21 04:34:49;;;;;;;7.45;3.45;;;7.40;99.90;;;;;;5049381;28;20033;-75
2021/03/21 04:37:17;;;;;;;6.70;2.78;;;7.40;99.90;;;;;;5032897;28;20048;-74
2021/03/21 04:39:46;;;;;;;10.90;2.28;;;7.50;99.90;;;;;;5038545;28;20032;-76
2021/03/21 04:42:21;;;;;;;6.68;2.33;;;7.40;99.90;;;;;;5039348;28;20089;-76
2021/03/21 04:44:49;;;;;;;13.68;2.33;;;7.40;99.90;;;;;;5032808;28;20185;-75
2021/03/21 04:47:47;;;;;;;4.78;1.63;;;7.40;99.90;;;;;;5051245;28;20033;-74
2021/03/21 04:50:15;;;;;;;;;;;7.50;99.90;;;;;;5037892;28;20108;-74
2021/03/21 04:53:13;;;;;;;9.13;2.17;;;7.40;99.90;;;;;;5032981;28;19955;-74
2021/03/21 04:55:42;;;;;;;10.45;2.25;;;7.40;99.90;;;;;;5022334;28;20033;-74
2021/03/21 04:58:17;;;;;;;15.23;2.58;;;7.50;99.90;;;;;;5044078;28;20517;-74
2021/03/21 05:00:46;;;;;;;7.20;1.60;;;7.40;99.90;;;;;;5054605;28;20106;-74
2021/03/21 05:03:32;;;;;;;8.73;1.80;;;7.50;99.90;;;;;;5040530;28;20059;-75
2021/03/21 05:06:14;;;;;;;8.80;1.35;;;7.40;99.90;;;;;;5048144;28;20021;-74
2021/03/21 05:09:01;;;;;;;5.85;1.58;;;7.40;99.90;;;;;;5037326;28;20021;-75
2021/03/21 05:11:53;;;;;;;10.55;2.38;;;7.40;99.90;;;;;;5049539;28;20021;-74
2021/03/21 05:14:26;;;;;;;7.90;1.98;;;7.30;99.90;;;;;;5040556;28;20037;-74
2021/03/21 05:17:31;;;;;;;3.83;1.42;;;7.40;99.90;;;;;;5036077;28;20071;-76
2021/03/21 05:20:02;;;;;;;11.20;1.98;;;7.40;99.90;;;;;;5007741;28;20037;-75
2021/03/21 05:22:49;;;;;;;11.18;2.03;;;7.40;99.90;;;;;;5039707;28;20363;-75
2021/03/21 05:25:47;;;;;;;5.80;1.50;;;7.40;99.90;;;;;;5045718;28;20071;-75
2021/03/21 05:28:29;;;;;;;11.65;1.55;;;7.40;99.90;;;;;;5050567;28;20779;-76
2021/03/21 05:30:54;;;;;;;15.82;2.38;;;7.50;99.90;;;;;;5037212;28;20026;-76
2021/03/21 05:33:20;;;;;;;12.82;1.55;;;7.50;99.90;;;;;;5043017;28;20470;-76
2021/03/21 05:35:45;;;;;;;9.40;1.60;;;7.50;99.90;;;;;;5041599;28;20022;-76
2021/03/21 05:38:41;;;;;;;6.15;1.30;;;7.40;99.90;;;;;;5067912;28;20158;-76
2021/03/21 05:41:26;;;;;;;16.67;3.17;;;7.40;99.90;;;;;;5041717;28;20090;-77
2021/03/21 05:43:52;;;;;;;6.32;1.40;;;7.40;99.90;;;;;;5039128;28;20021;-76
2021/03/21 05:46:48;;;;;;;10.07;2.45;;;7.40;99.90;;;;;;5074666;28;20040;-76
2021/03/21 05:49:40;;;;;;;9.38;1.50;;;7.40;99.90;;;;;;5054755;28;20035;-76
2021/03/21 05:52:21;;;;;;;7.65;1.45;;;7.40;99.90;;;;;;5029868;28;20492;-76
2021/03/21 05:54:55;;;;;;;3.42;1.08;;;7.50;99.90;;;;;;5075489;28;20028;-76
2021/03/21 05:57:36;;;;;;;7.55;1.23;;;7.40;99.90;;;;;;5056438;28;20039;-76
2021/03/21 06:00:23;;;;;;;5.20;1.55;;;7.40;99.90;;;;;;5047280;28;20028;-76
2021/03/21 06:03:01;;;;;;;12.65;1.80;;;7.50;99.90;;;;;;5066732;28;20019;-76
2021/03/21 06:06:22;;;;;;;11.93;1.67;;;7.50;99.90;;;;;;5075108;28;20036;-75
2021/03/21 06:08:54;;;;;;;10.90;1.80;;;7.50;99.90;;;;;;5014415;28;20049;-75
2021/03/21 06:11:54;;;;;;;9.40;1.77;;;7.50;99.90;;;;;;5054117;28;20119;-75
2021/03/21 06:14:40;;;;;;;8.18;2.45;;;7.50;99.90;;;;;;5054778;28;20036;-75
2021/03/21 06:17:39;;;;;;;12.13;1.55;;;7.40;99.90;;;;;;5058502;28;20478;-75
2021/03/21 06:20:26;;;;;;;14.18;2.20;;;7.50;99.90;;;;;;5055702;28;20564;-74
2021/03/21 06:23:18;;;;;;;8.63;2.60;;;7.60;99.90;;;;;;5064933;28;20529;-75
2021/03/21 06:26:05;;;;;;;7.50;1.58;;;7.60;99.90;;;;;;5054621;28;20028;-76
2021/03/21 06:28:56;;;;;;;9.13;1.33;;;7.60;99.90;;;;;;5036741;28;20033;-76
2021/03/21 06:31:49;;;;;;;12.77;1.77;;;7.60;99.90;;;;;;5036296;28;20033;-76
2021/03/21 06:34:58;;;;;;;18.20;1.52;;;7.60;99.90;;;;;;5046709;28;20029;-76
2021/03/21 06:37:58;;;;;;;15.02;1.58;;;7.60;99.90;;;;;;5045934;28;20053;-76
2021/03/21 06:40:23;;;;;;;9.85;1.20;;;7.60;99.90;;;;;;5054312;28;20025;-76
2021/03/21 06:43:10;;;;;;;9.45;1.52;;;7.50;99.90;;;;;;5051581;28;20064;-76
2021/03/21 06:46:13;;;;;;;5.93;1.38;;;7.40;99.90;;;;;;5055911;28;20040;-76
2021/03/21 06:49:20;;;;;;;10.85;2.22;;;7.40;99.90;;;;;;5051864;28;20370;-75
2021/03/21 06:52:09;;;;;;;7.37;1.87;;;7.50;99.90;;;;;;5023552;28;20036;-75
2021/03/21 06:54:53;;;;;;;16.05;3.08;;;7.50;99.90;;;;;;5054308;28;20782;-75
2021/03/21 06:57:49;;;;;;;11.25;2.10;;;7.60;99.90;;;;;;5048709;28;20032;-76
2021/03/21 07:00:48;;;;;;;24.92;1.40;;;7.70;99.90;;;;;;5052338;28;20028;-74
2021/03/21 07:03:29;;;;;;;9.02;1.48;;;7.70;99.90;;;;;;5054262;28;20028;-76
2021/03/21 07:06:13;;;;;;;19.58;3.22;;;7.80;99.90;;;;;;5037485;28;20036;-75
2021/03/21 07:09:06;;;;;;;12.90;2.45;;;7.80;99.90;;;;;;5051107;28;20373;-74
2021/03/21 07:11:54;;;;;;;10.65;2.00;;;7.70;99.90;;;;;;5066133;28;20027;-75
2021/03/21 07:14:47;;;;;;;6.85;1.20;;;7.70;99.90;;;;;;5076425;28;20034;-76
2021/03/21 07:17:27;;;;;;;14.38;1.10;;;7.80;99.90;;;;;;5053975;28;20032;-76
2021/03/21 07:20:31;;;;;;;12.48;2.63;;;7.80;99.90;;;;;;5046062;28;20063;-76
2021/03/21 07:23:20;;;;;;;6.95;1.33;;;7.80;99.90;;;;;;5062968;28;20025;-76
2021/03/21 07:26:30;;;;;;;18.15;1.80;;;7.90;99.90;;;;;;5055433;28;20024;-75
2021/03/21 07:29:23;;;;;;;15.80;2.70;;;7.80;99.90;;;;;;4992261;28;20034;-76
2021/03/21 07:31:51;;;;;;;16.45;2.25;;;7.70;99.90;;;;;;5007584;28;20379;-76
2021/03/21 07:34:16;;;;;;;;;;;7.80;99.90;;;;;;5050740;28;20036;-75
2021/03/21 07:37:09;;;;;;;11.70;1.30;;;7.80;99.90;;;;;;5053856;28;19920;-75
2021/03/21 07:40:02;;;;;;;16.45;2.13;;;7.70;99.90;;;;;;5054283;28;20123;-76
2021/03/21 07:42:59;;;;;;;8.40;1.20;;;7.70;99.90;;;;;;5054423;28;20101;-77
2021/03/21 07:45:45;;;;;;;10.05;1.60;;;7.70;99.90;;;;;;5053166;28;20021;-78
2021/03/21 07:48:59;;;;;;;8.32;0.90;;;7.80;99.90;;;;;;5036839;28;20455;-76
2021/03/21 07:51:36;;;;;;;15.18;1.40;;;8.00;99.90;;;;;;5065267;28;20506;-76
2021/03/21 07:54:07;;;;;;;17.42;1.92;;;8.00;99.90;;;;;;5044253;28;20033;-76
2021/03/21 07:56:42;;;;;;;16.40;1.70;;;8.10;99.90;;;;;;5072114;28;20118;-76
2021/03/21 07:59:18;;;;;;;9.80;2.83;;;8.10;99.90;;;;;;5056315;28;20396;-76
2021/03/21 08:01:44;;;;;;;20.33;2.00;;;8.20;99.90;;;;;;5044438;28;20063;-76
2021/03/21 08:04:15;;;;;;;15.57;1.70;;;8.10;99.90;;;;;;5054212;28;20040;-76
2021/03/21 08:06:45;;;;;;;19.23;1.35;;;8.10;99.90;;;;;;5072050;28;20377;-75
2021/03/21 08:09:18;;;;;;;16.27;1.80;;;8.10;99.90;;;;;;5069879;28;20074;-75
2021/03/21 08:11:58;;;;;;;21.95;2.75;;;8.00;99.90;;;;;;5054833;28;20031;-77
2021/03/21 08:14:30;;;;;;;16.00;2.03;;;8.10;99.90;;;;;;5070018;28;20480;-77
2021/03/21 08:16:59;;;;;;;19.33;3.15;;;8.00;99.90;;;;;;5067024;28;20029;-76
2021/03/21 08:19:32;;;;;;;13.40;3.40;;;8.00;99.90;;;;;;5052912;28;20043;-77
2021/03/21 08:21:58;;;;;;;15.90;2.72;;;7.90;99.90;;;;;;5070266;28;20060;-76
2021/03/21 08:24:30;;;;;;;18.65;2.38;;;7.80;99.90;;;;;;5058882;28;20052;-76
2021/03/21 08:26:59;;;;;;;26.48;1.77;;;7.80;99.90;;;;;;5049198;28;20345;-76
2021/03/21 08:29:26;;;;;;;12.80;2.05;;;7.90;99.90;;;;;;5053479;28;20079;-75
2021/03/21 08:32:12;;;;;;;9.75;1.85;;;8.00;99.90;;;;;;5065936;28;20029;-76
2021/03/21 08:34:45;;;;;;;15.05;3.00;;;8.10;99.90;;;;;;5047333;28;20473;-75
2021/03/21 08:37:28;;;;;;;15.27;2.40;;;8.20;99.90;;;;;;5052720;28;20054;-76
2021/03/21 08:40:34;;;;;;;16.33;2.58;;;8.30;99.90;;;;;;5062625;28;20059;-75
2021/03/21 08:43:08;;;;;;;17.30;3.08;;;8.30;99.90;;;;;;4982842;28;20033;-74
2021/03/21 08:45:42;;;;;;;18.05;2.67;;;8.20;99.90;;;;;;5068681;28;20492;-75
2021/03/21 08:48:10;;;;;;;23.08;3.45;;;8.20;99.90;;;;;;5077095;28;20025;-75
2021/03/21 08:50:36;;;;;;;16.70;2.22;;;8.20;99.90;;;;;;5062226;28;20029;-76
2021/03/21 08:53:03;;;;;;;7.05;2.30;;;8.30;99.90;;;;;;5061395;28;20089;-76
2021/03/21 08:55:35;;;;;;;32.27;3.80;;;8.20;99.90;;;;;;5065917;28;20029;-76
2021/03/21 08:58:24;;;;;;;16.30;2.63;;;8.20;99.90;;;;;;5040995;28;20028;-76
2021/03/21 09:00:50;;;;;;;28.15;2.97;;;8.10;99.90;;;;;;5057832;28;20025;-77
2021/03/21 09:03:19;;;;;;;19.42;2.53;;;8.10;99.90;;;;;;5073470;28;20489;-75
2021/03/21 09:05:54;;;;;;;15.32;3.42;;;8.10;99.90;;;;;;5056357;28;20055;-75
2021/03/21 09:08:27;;;;;;;15.82;2.30;;;8.10;99.90;;;;;;5057689;28;20511;-75
2021/03/21 09:10:59;;;;;;;24.17;2.20;;;8.20;99.90;;;;;;5054647;28;20447;-75
2021/03/21 09:13:28;;;;;;;18.02;3.65;;;8.20;99.90;;;;;;5043453;28;20468;-75
2021/03/21 09:15:54;;;;;;;21.98;3.00;;;8.20;99.90;;;;;;5075256;28;20028;-76
2021/03/21 09:18:19;;;;;;;12.93;2.22;;;8.10;99.90;;;;;;5040758;28;20437;-75
2021/03/21 09:21:16;;;;;;;19.23;3.22;;;8.00;99.90;;;;;;5049328;28;20040;-75
2021/03/21 09:23:46;;;;;;;17.40;2.60;;;8.10;99.90;;;;;;5054631;28;20033;-75
2021/03/21 09:26:12;;;;;;;15.20;3.15;;;8.10;99.90;;;;;;5071221;28;20103;-75
2021/03/21 09:28:40;;;;;;;25.40;4.50;;;8.20;99.90;;;;;;5064678;28;20111;-75
2021/03/21 09:31:10;;;;;;;18.15;3.47;;;8.30;99.90;;;;;;5059819;28;20028;-75
2021/03/21 09:33:41;;;;;;;23.92;3.78;;;8.40;99.90;;;;;;5060336;28;20025;-76
2021/03/21 09:36:19;;;;;;;19.13;3.17;;;8.30;99.90;;;;;;5071285;28;20056;-77
2021/03/21 09:38:55;;;;;;;20.40;2.97;;;8.50;99.90;;;;;;5044900;28;20119;-76
2021/03/21 09:41:22;;;;;;;27.05;3.85;;;8.60;99.90;;;;;;5071649;28;20388;-80
2021/03/21 09:43:48;;;;;;;21.98;3.03;;;8.50;99.90;;;;;;5064221;28;20025;-77
2021/03/21 09:46:50;;;;;;;22.10;2.80;;;8.40;99.90;;;;;;5051092;28;20016;-76
2021/03/21 09:49:54;;;;;;;37.55;7.30;;;8.30;99.90;;;;;;5057189;28;20039;-77
2021/03/21 09:52:44;;;;;;;29.90;3.13;;;8.20;99.90;;;;;;5018003;28;20400;-74
2021/03/21 09:55:19;;;;;;;30.55;3.53;;;8.00;99.90;;;;;;5057419;28;20094;-76
2021/03/21 09:58:06;;;;;;;14.43;2.83;;;8.30;99.90;;;;;;5047640;28;20032;-77
2021/03/21 10:00:35;;;;;;;18.48;2.80;;;8.40;99.90;;;;;;5051257;28;20510;-76
2021/03/21 10:03:04;;;;;;;16.73;2.65;;;8.30;99.90;;;;;;5052551;28;20103;-75
2021/03/21 10:05:56;;;;;;;20.35;3.22;;;8.30;99.90;;;;;;5066346;28;20544;-77
2021/03/21 10:08:43;;;;;;;17.02;3.03;;;8.40;99.90;;;;;;5040938;28;20068;-74
2021/03/21 10:11:15;;;;;;;17.10;2.35;;;8.60;99.90;;;;;;5054742;28;20462;-75
2021/03/21 10:13:45;;;;;;;23.33;3.83;;;8.60;99.90;;;;;;5075542;28;20020;-75
2021/03/21 10:16:13;;;;;;;19.58;2.92;;;8.60;99.90;;;;;;5076599;28;20031;-75
2021/03/21 10:18:49;;;;;;;41.03;4.10;;;8.60;99.90;;;;;;5073437;28;20024;-75
2021/03/21 10:21:24;;;;;;;17.45;2.70;;;8.60;99.90;;;;;;5070617;28;20063;-75
2021/03/21 10:23:50;;;;;;;25.15;3.15;;;8.80;99.90;;;;;;5047563;28;20813;-76
2021/03/21 10:26:18;;;;;;;25.73;3.38;;;8.90;99.90;;;;;;5075953;28;20482;-76
2021/03/21 10:28:51;;;;;;;32.42;3.58;;;8.90;99.90;;;;;;5049763;28;20032;-75
2021/03/21 10:31:27;;;;;;;20.38;2.90;;;8.90;99.90;;;;;;5058020;28;20472;-77
2021/03/21 10:34:01;;;;;;;13.73;4.07;;;9.10;99.90;;;;;;5057794;28;20021;-76
2021/03/21 10:39:18;;;;;;;19.55;3.35;;;9.00;99.90;;;;;;5068222;28;20033;-75
2021/03/21 10:42:09;;;;;;;17.38;3.10;;;8.90;99.90;;;;;;5055067;28;20029;-75
2021/03/21 10:44:55;;;;;;;18.65;2.65;;;8.90;99.90;;;;;;5054828;28;20032;-75
2021/03/21 10:47:26;;;;;;;34.78;3.85;;;9.00;99.90;;;;;;5036991;28;20029;-75
2021/03/21 10:49:56;;;;;;;22.60;3.10;;;8.80;99.90;;;;;;5038039;28;20401;-75
2021/03/21 10:52:30;;;;;;;20.50;3.17;;;8.70;99.90;;;;;;5051189;28;20032;-75
2021/03/21 10:55:11;;;;;;;15.43;3.22;;;8.50;99.90;;;;;;5073636;28;20024;-75
2021/03/21 10:57:55;;;;;;;28.90;3.90;;;8.50;99.90;;;;;;5073851;28;20078;-75
2021/03/21 11:00:30;;;;;;;23.63;3.28;;;8.60;99.90;;;;;;5073759;28;20078;-75
2021/03/21 11:03:01;;;;;;;30.38;4.82;;;8.60;99.90;;;;;;5056152;28;20032;-75
2021/03/21 11:05:47;;;;;;;23.80;3.08;;;8.60;99.90;;;;;;5074335;28;20111;-76
2021/03/21 11:08:12;;;;;;;28.50;3.75;;;8.50;99.90;;;;;;5073683;28;20055;-76
2021/03/21 11:11:12;;;;;;;34.65;3.95;;;8.60;99.90;;;;;;5073663;28;20028;-75
2021/03/21 11:13:38;;;;;;;28.80;5.30;;;8.40;99.90;;;;;;5074028;28;20038;-76
2021/03/21 11:16:12;;;;;;;18.25;3.55;;;8.40;99.90;;;;;;5074022;28;20032;-76
2021/03/21 11:18:39;;;;;;;27.55;3.55;;;8.40;99.90;;;;;;5073922;28;20443;-75
2021/03/21 11:21:17;;;;;;;19.88;2.80;;;8.40;99.90;;;;;;5073442;28;20025;-75
2021/03/21 11:24:05;;;;;;;25.75;3.05;;;8.40;99.90;;;;;;5056164;28;20519;-75
2021/03/21 11:26:37;;;;;;;20.05;2.63;;;8.50;99.90;;;;;;5074290;28;20035;-75
2021/03/21 11:29:06;;;;;;;37.47;4.68;;;8.50;99.90;;;;;;5073618;28;20482;-75
2021/03/21 11:31:41;;;;;;;21.00;3.40;;;8.50;99.90;;;;;;5074040;28;20425;-76
2021/03/21 11:34:19;;;;;;;24.35;3.53;;;8.60;99.90;;;;;;5074004;28;20024;-76
2021/03/21 11:36:57;;;;;;;20.02;2.58;;;8.60;99.90;;;;;;5071821;28;20037;-75
2021/03/21 11:39:47;;;;;;;29.00;3.42;;;8.60;99.90;;;;;;5065964;28;20025;-76
2021/03/21 11:42:29;;;;;;;23.52;3.95;;;8.60;99.90;;;;;;5069829;28;20473;-76
2021/03/21 11:45:20;;;;;;;24.70;3.83;;;8.60;99.90;;;;;;5070137;28;20032;-76
2021/03/21 11:48:25;;;;;;;18.52;3.03;;;8.60;99.90;;;;;;5072118;28;20043;-76
2021/03/21 11:50:54;;;;;;;19.10;3.33;;;8.60;99.90;;;;;;5050134;28;20036;-76
2021/03/21 11:53:35;;;;;;;22.60;3.28;;;8.60;99.90;;;;;;5049555;28;20081;-76
2021/03/21 11:56:46;;;;;;;24.50;3.50;;;8.70;99.90;;;;;;5049392;28;20035;-76
2021/03/21 11:59:17;;;;;;;13.93;3.85;;;8.60;99.90;;;;;;5066717;28;20125;-75
2021/03/21 12:02:02;;;;;;;23.15;2.90;;;8.50;99.90;;;;;;5062137;28;20086;-76
2021/03/21 12:04:33;;;;;;;25.15;3.60;;;8.70;99.90;;;;;;5066729;28;20032;-75
2021/03/21 12:07:00;;;;;;;26.30;3.40;;;8.70;99.90;;;;;;5052095;28;20053;-75
2021/03/21 12:09:36;;;;;;;29.70;3.33;;;8.50;99.90;;;;;;5049170;28;20064;-76
2021/03/21 12:12:32;;;;;;;25.85;3.33;;;8.40;99.90;;;;;;5063433;28;20548;-75
2021/03/21 12:14:58;;;;;;;27.13;4.55;;;8.40;99.90;;;;;;5050328;28;20025;-75
2021/03/21 12:17:24;;;;;;;44.15;5.10;;;8.40;99.90;;;;;;5069025;28;20477;-76
2021/03/21 12:20:16;;;;;;;26.02;3.95;;;8.40;99.90;;;;;;5045495;28;20040;-76
2021/03/21 12:22:48;;;;;;;13.85;2.70;;;8.50;99.90;;;;;;5068788;28;20138;-75
2021/03/21 12:25:27;;;;;;;21.40;3.70;;;8.80;99.90;;;;;;5064090;28;20487;-76
2021/03/21 12:28:17;;;;;;;25.70;2.65;;;8.70;99.90;;;;;;5061944;28;20417;-76
2021/03/21 12:30:44;;;;;;;16.42;2.65;;;8.70;99.90;;;;;;5067532;28;20024;-76
2021/03/21 12:33:28;;;;;;;22.25;3.85;;;8.70;99.90;;;;;;5052822;28;20480;-76
2021/03/21 12:35:56;;;;;;;33.58;3.30;;;8.60;99.90;;;;;;5061891;28;20035;-75
2021/03/21 12:38:35;;;;;;;32.78;4.70;;;8.80;99.90;;;;;;5059121;28;20079;-76
2021/03/21 12:41:28;;;;;;;26.77;2.63;;;8.80;99.90;;;;;;5072179;28;20048;-75
2021/03/21 12:44:13;;;;;;;27.67;4.82;;;8.80;99.90;;;;;;5055314;28;20066;-76
2021/03/21 12:46:42;;;;;;;31.50;6.07;;;9.00;99.90;;;;;;5076496;28;20028;-76
2021/03/21 12:49:26;;;;;;;23.02;3.40;;;9.00;99.90;;;;;;5041767;28;20041;-76
2021/03/21 12:51:57;;;;;;;20.80;3.83;;;9.10;99.90;;;;;;5058378;28;20033;-76
2021/03/21 12:54:23;;;;;;;17.17;3.53;;;9.20;99.90;;;;;;5068046;28;20057;-75
2021/03/21 12:56:48;;;;;;;19.75;3.63;;;9.30;99.90;;;;;;5048643;28;20115;-77
2021/03/21 12:59:14;;;;;;;35.22;4.00;;;9.10;99.90;;;;;;5058738;28;20705;-77
2021/03/21 13:01:46;;;;;;;30.55;2.90;;;9.10;99.90;;;;;;5048714;28;20013;-73
2021/03/21 13:04:12;;;;;;;20.13;4.07;;;9.10;99.90;;;;;;5051935;28;20045;-78
2021/03/21 13:06:39;;;;;;;22.80;3.20;;;9.00;99.90;;;;;;5055039;28;20438;-78
2021/03/21 13:09:05;;;;;;;29.48;6.43;;;9.00;99.90;;;;;;5050544;28;20098;-75
2021/03/21 13:11:31;;;;;;;24.67;4.90;;;9.00;99.90;;;;;;5073105;28;20392;-74
2021/03/21 13:13:57;;;;;;;32.45;4.53;;;8.80;99.90;;;;;;5073489;28;20054;-73
2021/03/21 13:16:22;;;;;;;23.58;3.63;;;8.80;99.90;;;;;;5072495;28;20392;-72
2021/03/21 13:18:48;;;;;;;19.33;2.85;;;9.00;99.90;;;;;;5072403;28;20021;-72
2021/03/21 13:21:13;;;;;;;27.90;4.35;;;9.10;99.90;;;;;;5064696;28;20017;-72
2021/03/21 13:23:39;;;;;;;26.02;5.10;;;9.00;99.90;;;;;;5048159;28;20520;-71
2021/03/21 13:26:05;;;;;;;21.95;3.45;;;9.00;99.90;;;;;;5068924;28;20020;-72
2021/03/21 13:28:31;;;;;;;15.93;3.28;;;8.90;99.90;;;;;;5061887;28;20032;-73
2021/03/21 13:30:59;;;;;;;29.15;3.05;;;9.10;99.90;;;;;;5057255;28;20083;-72
2021/03/21 13:33:27;;;;;;;28.98;4.32;;;9.10;99.90;;;;;;5074851;28;20035;-72
2021/03/21 13:35:55;;;;;;;19.52;3.17;;;8.90;99.90;;;;;;5057499;28;20179;-73
2021/03/21 13:38:22;;;;;;;21.15;4.28;;;8.80;99.90;;;;;;5045323;28;20093;-71
2021/03/21 13:40:49;;;;;;;25.83;4.68;;;8.80;99.90;;;;;;5074440;28;20545;-72
2021/03/21 13:43:15;;;;;;;29.88;3.42;;;8.70;99.90;;;;;;5057312;28;20024;-72